sensor_id;sensor_type;location;lat;lon;timestamp;temperature;humidity
60027;DHT22;45891;53.006;6.512;2022-12-18T00:00:41;-3.20;99.90
60027;DHT22;45891;53.006;6.512;2022-12-18T00:03:07;-3.20;99.90
60027;DHT22;45891;53.006;6.512;2022-12-18T00:05:33;-3.20;99.90
60027;DHT22;45891;53.006;6.512;2022-12-18T00:07:59;-3.20;99.90
60027;DHT22;45891;53.006;6.512;2022-12-18T00:10:26;-3.20;99.90
60027;DHT22;45891;53.006;6.512;2022-12-18T00:12:52;-3.20;99.90
60027;DHT22;45891;53.006;6.512;2022-12-18T00:15:18;-3.20;99.90
60027;DHT22;45891;53.006;6.512;2022-12-18T00:17:44;-3.20;99.90
60027;DHT22;45891;53.006;6.512;2022-12-18T00:20:10;-3.10;99.90
60027;DHT22;45891;53.006;6.512;2022-12-18T00:22:36;-3.20;99.90
60027;DHT22;45891;53.006;6.512;2022-12-18T00:25:02;-3.20;99.90
60027;DHT22;45891;53.006;6.512;2022-12-18T00:27:28;-3.20;99.90
60027;DHT22;45891;53.006;6.512;2022-12-18T00:29:54;-3.20;99.90
60027;DHT22;45891;53.006;6.512;2022-12-18T00:32:20;-3.20;99.90
60027;DHT22;45891;53.006;6.512;2022-12-18T00:34:46;-3.20;99.90
60027;DHT22;45891;53.006;6.512;2022-12-18T00:37:12;-3.20;99.90
60027;DHT22;45891;53.006;6.512;2022-12-18T00:39:38;-3.20;99.90
60027;DHT22;45891;53.006;6.512;2022-12-18T00:42:04;-3.20;99.90
60027;DHT22;45891;53.006;6.512;2022-12-18T00:44:48;-3.30;99.90
60027;DHT22;45891;53.006;6.512;2022-12-18T00:47:14;-3.30;99.90
60027;DHT22;45891;53.006;6.512;2022-12-18T00:49:40;-3.30;99.90
60027;DHT22;45891;53.006;6.512;2022-12-18T00:52:06;-3.30;99.90
60027;DHT22;45891;53.006;6.512;2022-12-18T00:54:32;-3.40;99.90
60027;DHT22;45891;53.006;6.512;2022-12-18T00:56:58;-3.40;99.90
60027;DHT22;45891;53.006;6.512;2022-12-18T00:59:24;-3.40;99.90
60027;DHT22;45891;53.006;6.512;2022-12-18T01:01:50;-3.40;99.90
60027;DHT22;45891;53.006;6.512;2022-12-18T01:04:16;-3.50;99.90
60027;DHT22;45891;53.006;6.512;2022-12-18T01:06:42;-3.50;99.90
60027;DHT22;45891;53.006;6.512;2022-12-18T01:09:08;-3.60;99.90
60027;DHT22;45891;53.006;6.512;2022-12-18T01:11:34;-3.50;99.90
60027;DHT22;45891;53.006;6.512;2022-12-18T01:14:00;-3.50;99.90
60027;DHT22;45891;53.006;6.512;2022-12-18T01:16:26;-3.50;99.90
60027;DHT22;45891;53.006;6.512;2022-12-18T01:18:52;-3.50;99.90
60027;DHT22;45891;53.006;6.512;2022-12-18T01:21:20;-3.50;99.90
60027;DHT22;45891;53.006;6.512;2022-12-18T01:23:46;-3.50;99.90
60027;DHT22;45891;53.006;6.512;2022-12-18T01:26:13;-3.60;99.90
60027;DHT22;45891;53.006;6.512;2022-12-18T01:28:40;-3.60;99.90
60027;DHT22;45891;53.006;6.512;2022-12-18T01:31:10;-3.60;99.90
60027;DHT22;45891;53.006;6.512;2022-12-18T01:33:36;-3.70;99.90
60027;DHT22;45891;53.006;6.512;2022-12-18T01:36:02;-3.70;99.90
60027;DHT22;45891;53.006;6.512;2022-12-18T01:38:28;-3.70;99.90
60027;DHT22;45891;53.006;6.512;2022-12-18T01:40:57;-3.70;99.90
60027;DHT22;45891;53.006;6.512;2022-12-18T01:43:40;-3.70;99.90
60027;DHT22;45891;53.006;6.512;2022-12-18T01:46:06;-3.70;99.90
60027;DHT22;45891;53.006;6.512;2022-12-18T01:48:32;-3.70;99.90
60027;DHT22;45891;53.006;6.512;2022-12-18T01:50:58;-3.70;99.90
60027;DHT22;45891;53.006;6.512;2022-12-18T01:53:24;-3.70;99.90
60027;DHT22;45891;53.006;6.512;2022-12-18T01:55:50;-3.70;99.90
60027;DHT22;45891;53.006;6.512;2022-12-18T01:58:17;-3.80;99.90
60027;DHT22;45891;53.006;6.512;2022-12-18T02:00:43;-3.80;99.90
60027;DHT22;45891;53.006;6.512;2022-12-18T02:03:10;-3.80;99.90
60027;DHT22;45891;53.006;6.512;2022-12-18T02:15:44;-3.80;99.90
60027;DHT22;45891;53.006;6.512;2022-12-18T02:18:19;-3.90;99.90
60027;DHT22;45891;53.006;6.512;2022-12-18T02:20:47;-3.90;99.90
60027;DHT22;45891;53.006;6.512;2022-12-18T02:26:18;-3.80;99.90
60027;DHT22;45891;53.006;6.512;2022-12-18T02:28:52;-3.80;99.90
60027;DHT22;45891;53.006;6.512;2022-12-18T02:31:21;-3.80;99.90
60027;DHT22;45891;53.006;6.512;2022-12-18T02:33:48;-3.90;99.90
60027;DHT22;45891;53.006;6.512;2022-12-18T02:36:15;-3.80;99.90
60027;DHT22;45891;53.006;6.512;2022-12-18T02:38:42;-3.90;99.90
60027;DHT22;45891;53.006;6.512;2022-12-18T02:41:08;-3.90;99.90
60027;DHT22;45891;53.006;6.512;2022-12-18T02:43:34;-3.90;99.90
60027;DHT22;45891;53.006;6.512;2022-12-18T02:46:00;-4.00;99.90
60027;DHT22;45891;53.006;6.512;2022-12-18T02:48:33;-4.00;99.90
60027;DHT22;45891;53.006;6.512;2022-12-18T02:51:08;-4.00;99.90
60027;DHT22;45891;53.006;6.512;2022-12-18T02:53:38;-4.10;99.90
60027;DHT22;45891;53.006;6.512;2022-12-18T02:58:47;-4.10;99.90
60027;DHT22;45891;53.006;6.512;2022-12-18T03:04:33;-4.20;99.90
60027;DHT22;45891;53.006;6.512;2022-12-18T03:06:53;-4.30;99.90
60027;DHT22;45891;53.006;6.512;2022-12-18T03:09:31;-4.30;99.90
60027;DHT22;45891;53.006;6.512;2022-12-18T03:12:02;-4.30;99.90
60027;DHT22;45891;53.006;6.512;2022-12-18T03:14:48;-4.30;99.90
60027;DHT22;45891;53.006;6.512;2022-12-18T03:17:15;-4.40;99.90
60027;DHT22;45891;53.006;6.512;2022-12-18T03:19:42;-4.40;99.90
60027;DHT22;45891;53.006;6.512;2022-12-18T03:22:10;-4.40;99.90
60027;DHT22;45891;53.006;6.512;2022-12-18T03:24:36;-4.50;99.90
60027;DHT22;45891;53.006;6.512;2022-12-18T03:27:06;-4.50;99.90
60027;DHT22;45891;53.006;6.512;2022-12-18T03:29:33;-4.50;99.90
60027;DHT22;45891;53.006;6.512;2022-12-18T03:34:45;-4.60;99.90
60027;DHT22;45891;53.006;6.512;2022-12-18T03:37:12;-4.60;99.90
60027;DHT22;45891;53.006;6.512;2022-12-18T03:39:38;-4.70;99.90
60027;DHT22;45891;53.006;6.512;2022-12-18T03:42:14;-4.70;99.90
60027;DHT22;45891;53.006;6.512;2022-12-18T03:44:49;-4.70;99.90
60027;DHT22;45891;53.006;6.512;2022-12-18T03:50:13;-4.80;99.90
60027;DHT22;45891;53.006;6.512;2022-12-18T03:52:54;-4.80;99.90
60027;DHT22;45891;53.006;6.512;2022-12-18T03:55:21;-4.80;99.90
60027;DHT22;45891;53.006;6.512;2022-12-18T03:57:48;-4.80;99.90
60027;DHT22;45891;53.006;6.512;2022-12-18T04:00:16;-4.80;99.90
60027;DHT22;45891;53.006;6.512;2022-12-18T04:02:44;-4.80;99.90
60027;DHT22;45891;53.006;6.512;2022-12-18T04:05:11;-4.90;99.90
60027;DHT22;45891;53.006;6.512;2022-12-18T04:07:38;-4.90;99.90
60027;DHT22;45891;53.006;6.512;2022-12-18T04:10:06;-4.90;99.90
60027;DHT22;45891;53.006;6.512;2022-12-18T04:12:32;-5.00;99.90
60027;DHT22;45891;53.006;6.512;2022-12-18T04:14:58;-5.00;99.90
60027;DHT22;45891;53.006;6.512;2022-12-18T04:17:24;-5.00;99.90
60027;DHT22;45891;53.006;6.512;2022-12-18T04:19:50;-5.00;99.90
60027;DHT22;45891;53.006;6.512;2022-12-18T04:22:16;-5.00;99.90
60027;DHT22;45891;53.006;6.512;2022-12-18T04:24:42;-5.10;99.90
60027;DHT22;45891;53.006;6.512;2022-12-18T04:27:08;-5.10;99.90
60027;DHT22;45891;53.006;6.512;2022-12-18T04:29:34;-5.10;99.90
60027;DHT22;45891;53.006;6.512;2022-12-18T04:32:00;-5.10;99.90
60027;DHT22;45891;53.006;6.512;2022-12-18T04:34:26;-5.10;99.90
60027;DHT22;45891;53.006;6.512;2022-12-18T04:36:52;-5.20;99.90
60027;DHT22;45891;53.006;6.512;2022-12-18T04:39:18;-5.20;99.90
60027;DHT22;45891;53.006;6.512;2022-12-18T04:41:44;-5.20;99.90
60027;DHT22;45891;53.006;6.512;2022-12-18T04:44:10;-5.20;99.90
60027;DHT22;45891;53.006;6.512;2022-12-18T04:46:36;-5.20;99.90
60027;DHT22;45891;53.006;6.512;2022-12-18T04:49:02;-5.20;99.90
60027;DHT22;45891;53.006;6.512;2022-12-18T04:51:28;-5.30;99.90
60027;DHT22;45891;53.006;6.512;2022-12-18T04:53:54;-5.20;99.90
60027;DHT22;45891;53.006;6.512;2022-12-18T04:56:20;-5.30;99.90
60027;DHT22;45891;53.006;6.512;2022-12-18T04:58:46;-5.30;99.90
60027;DHT22;45891;53.006;6.512;2022-12-18T05:01:12;-5.30;99.90
60027;DHT22;45891;53.006;6.512;2022-12-18T05:03:38;-5.40;99.90
60027;DHT22;45891;53.006;6.512;2022-12-18T05:06:04;-5.30;99.90
60027;DHT22;45891;53.006;6.512;2022-12-18T05:08:31;-5.40;99.90
60027;DHT22;45891;53.006;6.512;2022-12-18T05:10:58;-5.40;99.90
60027;DHT22;45891;53.006;6.512;2022-12-18T05:13:24;-5.40;99.90
60027;DHT22;45891;53.006;6.512;2022-12-18T05:15:53;-5.40;99.90
60027;DHT22;45891;53.006;6.512;2022-12-18T05:18:19;-5.40;99.90
60027;DHT22;45891;53.006;6.512;2022-12-18T05:20:45;-5.40;99.90
60027;DHT22;45891;53.006;6.512;2022-12-18T05:23:11;-5.40;99.90
60027;DHT22;45891;53.006;6.512;2022-12-18T05:25:37;-5.40;99.90
60027;DHT22;45891;53.006;6.512;2022-12-18T05:28:03;-5.40;99.90
60027;DHT22;45891;53.006;6.512;2022-12-18T05:30:29;-5.40;99.90
60027;DHT22;45891;53.006;6.512;2022-12-18T05:32:55;-5.40;99.90
60027;DHT22;45891;53.006;6.512;2022-12-18T05:35:21;-5.40;99.90
60027;DHT22;45891;53.006;6.512;2022-12-18T05:37:47;-5.50;99.90
60027;DHT22;45891;53.006;6.512;2022-12-18T05:40:13;-5.40;99.90
60027;DHT22;45891;53.006;6.512;2022-12-18T05:42:39;-5.50;99.90
60027;DHT22;45891;53.006;6.512;2022-12-18T05:45:05;-5.50;99.90
60027;DHT22;45891;53.006;6.512;2022-12-18T05:47:32;-5.50;99.90
60027;DHT22;45891;53.006;6.512;2022-12-18T05:49:58;-5.60;99.90
60027;DHT22;45891;53.006;6.512;2022-12-18T05:52:24;-5.60;99.90
60027;DHT22;45891;53.006;6.512;2022-12-18T05:54:50;-5.60;99.90
60027;DHT22;45891;53.006;6.512;2022-12-18T05:57:16;-5.60;99.90
60027;DHT22;45891;53.006;6.512;2022-12-18T05:59:42;-5.70;99.90
60027;DHT22;45891;53.006;6.512;2022-12-18T06:02:08;-5.60;99.90
60027;DHT22;45891;53.006;6.512;2022-12-18T06:04:34;-5.60;99.90
60027;DHT22;45891;53.006;6.512;2022-12-18T06:07:00;-5.60;99.90
60027;DHT22;45891;53.006;6.512;2022-12-18T06:09:26;-5.60;99.90
60027;DHT22;45891;53.006;6.512;2022-12-18T06:11:52;-5.60;99.90
60027;DHT22;45891;53.006;6.512;2022-12-18T06:14:18;-5.60;99.90
60027;DHT22;45891;53.006;6.512;2022-12-18T06:16:44;-5.60;99.90
60027;DHT22;45891;53.006;6.512;2022-12-18T06:19:12;-5.60;99.90
60027;DHT22;45891;53.006;6.512;2022-12-18T06:21:39;-5.60;99.90
60027;DHT22;45891;53.006;6.512;2022-12-18T06:24:05;-5.70;99.90
60027;DHT22;45891;53.006;6.512;2022-12-18T06:26:31;-5.70;99.90
60027;DHT22;45891;53.006;6.512;2022-12-18T06:28:57;-5.80;99.90
60027;DHT22;45891;53.006;6.512;2022-12-18T06:31:23;-5.80;99.90
60027;DHT22;45891;53.006;6.512;2022-12-18T06:33:49;-5.80;99.90
60027;DHT22;45891;53.006;6.512;2022-12-18T06:36:15;-5.90;99.90
60027;DHT22;45891;53.006;6.512;2022-12-18T06:38:42;-5.90;99.90
60027;DHT22;45891;53.006;6.512;2022-12-18T06:41:09;-5.90;99.90
60027;DHT22;45891;53.006;6.512;2022-12-18T06:43:36;-5.90;99.90
60027;DHT22;45891;53.006;6.512;2022-12-18T06:46:02;-5.90;99.90
60027;DHT22;45891;53.006;6.512;2022-12-18T06:48:28;-6.00;99.90
60027;DHT22;45891;53.006;6.512;2022-12-18T06:50:54;-5.90;99.90
60027;DHT22;45891;53.006;6.512;2022-12-18T06:53:21;-6.00;99.90
60027;DHT22;45891;53.006;6.512;2022-12-18T06:55:46;-6.00;99.90
60027;DHT22;45891;53.006;6.512;2022-12-18T06:58:12;-6.00;99.90
60027;DHT22;45891;53.006;6.512;2022-12-18T07:00:38;-6.00;99.90
60027;DHT22;45891;53.006;6.512;2022-12-18T07:03:04;-6.00;99.90
60027;DHT22;45891;53.006;6.512;2022-12-18T07:05:30;-6.00;99.90
60027;DHT22;45891;53.006;6.512;2022-12-18T07:07:57;-6.00;99.90
60027;DHT22;45891;53.006;6.512;2022-12-18T07:10:23;-6.00;99.90
60027;DHT22;45891;53.006;6.512;2022-12-18T07:12:49;-6.00;99.90
60027;DHT22;45891;53.006;6.512;2022-12-18T07:15:14;-6.10;99.90
60027;DHT22;45891;53.006;6.512;2022-12-18T07:17:40;-6.10;99.90
60027;DHT22;45891;53.006;6.512;2022-12-18T07:20:06;-6.10;99.90
60027;DHT22;45891;53.006;6.512;2022-12-18T07:22:33;-6.10;99.90
60027;DHT22;45891;53.006;6.512;2022-12-18T07:24:58;-6.10;99.90
60027;DHT22;45891;53.006;6.512;2022-12-18T07:27:24;-6.10;99.90
60027;DHT22;45891;53.006;6.512;2022-12-18T07:29:50;-6.20;99.90
60027;DHT22;45891;53.006;6.512;2022-12-18T07:32:16;-6.10;99.90
60027;DHT22;45891;53.006;6.512;2022-12-18T07:34:42;-6.10;99.90
60027;DHT22;45891;53.006;6.512;2022-12-18T07:37:08;-6.10;99.90
60027;DHT22;45891;53.006;6.512;2022-12-18T07:39:34;-6.10;99.90
60027;DHT22;45891;53.006;6.512;2022-12-18T07:42:00;-6.10;99.90
60027;DHT22;45891;53.006;6.512;2022-12-18T07:44:44;-6.10;99.90
60027;DHT22;45891;53.006;6.512;2022-12-18T07:47:10;-6.00;99.90
60027;DHT22;45891;53.006;6.512;2022-12-18T07:49:36;-6.00;99.90
60027;DHT22;45891;53.006;6.512;2022-12-18T07:52:02;-6.00;99.90
60027;DHT22;45891;53.006;6.512;2022-12-18T07:54:28;-6.00;99.90
60027;DHT22;45891;53.006;6.512;2022-12-18T07:56:55;-5.90;99.90
60027;DHT22;45891;53.006;6.512;2022-12-18T07:59:21;-5.90;99.90
60027;DHT22;45891;53.006;6.512;2022-12-18T08:01:47;-5.90;99.90
60027;DHT22;45891;53.006;6.512;2022-12-18T08:04:13;-5.90;99.90
60027;DHT22;45891;53.006;6.512;2022-12-18T08:06:39;-5.90;99.90
60027;DHT22;45891;53.006;6.512;2022-12-18T08:09:05;-5.80;99.90
60027;DHT22;45891;53.006;6.512;2022-12-18T08:11:31;-5.80;99.90
60027;DHT22;45891;53.006;6.512;2022-12-18T08:13:57;-5.70;99.90
60027;DHT22;45891;53.006;6.512;2022-12-18T08:16:23;-5.70;99.90
60027;DHT22;45891;53.006;6.512;2022-12-18T08:18:51;-5.70;99.90
60027;DHT22;45891;53.006;6.512;2022-12-18T08:21:18;-5.70;99.90
60027;DHT22;45891;53.006;6.512;2022-12-18T08:23:46;-5.60;99.90
60027;DHT22;45891;53.006;6.512;2022-12-18T08:26:12;-5.60;99.90
60027;DHT22;45891;53.006;6.512;2022-12-18T08:28:38;-5.50;99.90
60027;DHT22;45891;53.006;6.512;2022-12-18T08:31:05;-5.50;99.90
60027;DHT22;45891;53.006;6.512;2022-12-18T08:33:31;-5.40;99.90
60027;DHT22;45891;53.006;6.512;2022-12-18T08:35:58;-5.40;99.90
60027;DHT22;45891;53.006;6.512;2022-12-18T08:38:24;-5.30;99.90
60027;DHT22;45891;53.006;6.512;2022-12-18T08:40:54;-5.20;99.90
60027;DHT22;45891;53.006;6.512;2022-12-18T08:43:23;-5.20;99.90
60027;DHT22;45891;53.006;6.512;2022-12-18T08:46:08;-5.10;99.90
60027;DHT22;45891;53.006;6.512;2022-12-18T08:48:34;-5.10;99.90
60027;DHT22;45891;53.006;6.512;2022-12-18T08:51:00;-5.00;99.90
60027;DHT22;45891;53.006;6.512;2022-12-18T08:53:26;-5.00;99.90
60027;DHT22;45891;53.006;6.512;2022-12-18T08:55:52;-4.90;99.90
60027;DHT22;45891;53.006;6.512;2022-12-18T08:58:19;-4.90;99.90
60027;DHT22;45891;53.006;6.512;2022-12-18T09:00:45;-4.80;99.90
60027;DHT22;45891;53.006;6.512;2022-12-18T09:03:14;-4.80;99.90
60027;DHT22;45891;53.006;6.512;2022-12-18T09:05:40;-4.80;99.90
60027;DHT22;45891;53.006;6.512;2022-12-18T09:08:06;-4.70;99.90
60027;DHT22;45891;53.006;6.512;2022-12-18T09:10:32;-4.70;99.90
60027;DHT22;45891;53.006;6.512;2022-12-18T09:12:58;-4.60;99.90
60027;DHT22;45891;53.006;6.512;2022-12-18T09:15:24;-4.50;99.90
60027;DHT22;45891;53.006;6.512;2022-12-18T09:17:50;-4.50;99.90
60027;DHT22;45891;53.006;6.512;2022-12-18T09:20:18;-4.40;99.90
60027;DHT22;45891;53.006;6.512;2022-12-18T09:22:44;-4.30;99.90
60027;DHT22;45891;53.006;6.512;2022-12-18T09:25:10;-4.30;99.90
60027;DHT22;45891;53.006;6.512;2022-12-18T09:27:36;-4.20;99.90
60027;DHT22;45891;53.006;6.512;2022-12-18T09:30:02;-4.10;99.90
60027;DHT22;45891;53.006;6.512;2022-12-18T09:32:28;-4.00;99.90
60027;DHT22;45891;53.006;6.512;2022-12-18T09:34:54;-4.00;99.90
60027;DHT22;45891;53.006;6.512;2022-12-18T09:37:20;-3.90;99.90
60027;DHT22;45891;53.006;6.512;2022-12-18T09:39:46;-3.80;99.90
60027;DHT22;45891;53.006;6.512;2022-12-18T09:42:21;-3.70;99.90
60027;DHT22;45891;53.006;6.512;2022-12-18T09:44:52;-3.60;99.90
60027;DHT22;45891;53.006;6.512;2022-12-18T09:47:25;-3.50;99.90
60027;DHT22;45891;53.006;6.512;2022-12-18T09:49:55;-3.40;99.90
60027;DHT22;45891;53.006;6.512;2022-12-18T09:54:58;-3.20;99.90
60027;DHT22;45891;53.006;6.512;2022-12-18T09:57:25;-3.20;99.90
60027;DHT22;45891;53.006;6.512;2022-12-18T09:59:55;-3.10;99.90
60027;DHT22;45891;53.006;6.512;2022-12-18T10:02:23;-3.00;99.90
60027;DHT22;45891;53.006;6.512;2022-12-18T10:05:00;-3.00;99.90
60027;DHT22;45891;53.006;6.512;2022-12-18T10:07:30;-3.00;99.90
60027;DHT22;45891;53.006;6.512;2022-12-18T10:10:01;-3.00;99.90
60027;DHT22;45891;53.006;6.512;2022-12-18T10:15:10;-2.90;99.90
60027;DHT22;45891;53.006;6.512;2022-12-18T10:17:43;-2.90;99.90
60027;DHT22;45891;53.006;6.512;2022-12-18T10:20:13;-2.90;99.90
60027;DHT22;45891;53.006;6.512;2022-12-18T10:25:27;-2.90;99.90
60027;DHT22;45891;53.006;6.512;2022-12-18T10:27:58;-2.90;99.90
60027;DHT22;45891;53.006;6.512;2022-12-18T10:30:26;-2.80;99.90
60027;DHT22;45891;53.006;6.512;2022-12-18T10:32:52;-2.80;99.90
60027;DHT22;45891;53.006;6.512;2022-12-18T10:35:20;-2.70;99.90
60027;DHT22;45891;53.006;6.512;2022-12-18T10:40:28;-2.60;99.90
60027;DHT22;45891;53.006;6.512;2022-12-18T10:43:13;-2.50;99.90
60027;DHT22;45891;53.006;6.512;2022-12-18T10:45:39;-2.40;99.90
60027;DHT22;45891;53.006;6.512;2022-12-18T10:48:16;-2.30;99.90
60027;DHT22;45891;53.006;6.512;2022-12-18T10:50:43;-2.30;99.90
60027;DHT22;45891;53.006;6.512;2022-12-18T10:53:13;-2.20;99.90
60027;DHT22;45891;53.006;6.512;2022-12-18T10:55:44;-2.10;99.90
60027;DHT22;45891;53.006;6.512;2022-12-18T11:06:04;-1.90;99.90
60027;DHT22;45891;53.006;6.512;2022-12-18T11:08:30;-1.90;99.90
60027;DHT22;45891;53.006;6.512;2022-12-18T11:10:56;-1.80;99.90
60027;DHT22;45891;53.006;6.512;2022-12-18T11:13:23;-1.80;99.90
60027;DHT22;45891;53.006;6.512;2022-12-18T11:15:50;-1.70;99.90
60027;DHT22;45891;53.006;6.512;2022-12-18T11:18:22;-1.70;99.90
60027;DHT22;45891;53.006;6.512;2022-12-18T11:20:51;-1.70;99.90
60027;DHT22;45891;53.006;6.512;2022-12-18T11:23:18;-1.60;99.90
60027;DHT22;45891;53.006;6.512;2022-12-18T11:25:58;-1.50;99.90
60027;DHT22;45891;53.006;6.512;2022-12-18T11:28:41;-1.50;99.90
60027;DHT22;45891;53.006;6.512;2022-12-18T11:33:41;-1.30;99.90
60027;DHT22;45891;53.006;6.512;2022-12-18T11:36:09;-1.30;99.90
60027;DHT22;45891;53.006;6.512;2022-12-18T11:38:36;-1.30;99.90
60027;DHT22;45891;53.006;6.512;2022-12-18T11:43:52;-1.20;99.90
60027;DHT22;45891;53.006;6.512;2022-12-18T11:46:39;-1.20;99.90
60027;DHT22;45891;53.006;6.512;2022-12-18T11:49:17;-1.20;99.90
60027;DHT22;45891;53.006;6.512;2022-12-18T11:51:47;-1.10;99.90
60027;DHT22;45891;53.006;6.512;2022-12-18T11:54:14;-1.10;99.90
60027;DHT22;45891;53.006;6.512;2022-12-18T11:56:48;-1.10;99.90
60027;DHT22;45891;53.006;6.512;2022-12-18T11:59:31;-1.10;99.90
60027;DHT22;45891;53.006;6.512;2022-12-18T12:02:09;-1.00;99.90
60027;DHT22;45891;53.006;6.512;2022-12-18T12:07:23;-1.00;99.90
60027;DHT22;45891;53.006;6.512;2022-12-18T12:17:36;-0.90;99.90
60027;DHT22;45891;53.006;6.512;2022-12-18T12:20:08;-0.90;99.90
60027;DHT22;45891;53.006;6.512;2022-12-18T12:22:40;-0.80;99.90
60027;DHT22;45891;53.006;6.512;2022-12-18T12:25:17;-0.80;99.90
60027;DHT22;45891;53.006;6.512;2022-12-18T12:38:13;-0.80;99.90
60027;DHT22;45891;53.006;6.512;2022-12-18T12:40:45;-0.80;99.90
60027;DHT22;45891;53.006;6.512;2022-12-18T12:43:19;-0.80;99.90
60027;DHT22;45891;53.006;6.512;2022-12-18T12:45:48;-0.70;99.90
60027;DHT22;45891;53.006;6.512;2022-12-18T12:48:20;-0.70;99.90
60027;DHT22;45891;53.006;6.512;2022-12-18T12:50:49;-0.60;99.90
60027;DHT22;45891;53.006;6.512;2022-12-18T12:53:21;-0.60;99.90
60027;DHT22;45891;53.006;6.512;2022-12-18T12:55:48;-0.60;99.90
60027;DHT22;45891;53.006;6.512;2022-12-18T12:58:16;-0.50;99.90
60027;DHT22;45891;53.006;6.512;2022-12-18T13:00:46;-0.60;99.90
60027;DHT22;45891;53.006;6.512;2022-12-18T13:03:29;-0.50;99.90
60027;DHT22;45891;53.006;6.512;2022-12-18T13:05:59;-0.50;99.90
60027;DHT22;45891;53.006;6.512;2022-12-18T13:08:27;-0.50;99.90
60027;DHT22;45891;53.006;6.512;2022-12-18T13:10:53;-0.50;99.90
60027;DHT22;45891;53.006;6.512;2022-12-18T13:13:51;-0.50;99.90
60027;DHT22;45891;53.006;6.512;2022-12-18T13:16:18;-0.50;99.90
60027;DHT22;45891;53.006;6.512;2022-12-18T13:18:54;-0.50;99.90
60027;DHT22;45891;53.006;6.512;2022-12-18T13:21:26;-0.40;99.90
60027;DHT22;45891;53.006;6.512;2022-12-18T13:23:53;-0.40;99.90
60027;DHT22;45891;53.006;6.512;2022-12-18T13:31:14;-0.40;99.90
60027;DHT22;45891;53.006;6.512;2022-12-18T13:33:41;-0.40;99.90
60027;DHT22;45891;53.006;6.512;2022-12-18T13:38:35;-0.40;99.90
60027;DHT22;45891;53.006;6.512;2022-12-18T13:41:22;-0.40;99.90
60027;DHT22;45891;53.006;6.512;2022-12-18T13:43:49;-0.40;99.90
60027;DHT22;45891;53.006;6.512;2022-12-18T13:48:41;-0.40;99.90
60027;DHT22;45891;53.006;6.512;2022-12-18T13:51:15;-0.30;99.90
60027;DHT22;45891;53.006;6.512;2022-12-18T13:53:43;-0.30;99.90
60027;DHT22;45891;53.006;6.512;2022-12-18T13:56:14;-0.30;99.90
60027;DHT22;45891;53.006;6.512;2022-12-18T13:58:41;-0.30;99.90
60027;DHT22;45891;53.006;6.512;2022-12-18T14:01:20;-0.30;99.90
60027;DHT22;45891;53.006;6.512;2022-12-18T14:03:47;-0.30;99.90
60027;DHT22;45891;53.006;6.512;2022-12-18T14:06:13;-0.30;99.90
60027;DHT22;45891;53.006;6.512;2022-12-18T14:08:39;-0.30;99.90
60027;DHT22;45891;53.006;6.512;2022-12-18T14:11:06;-0.30;99.90
60027;DHT22;45891;53.006;6.512;2022-12-18T14:13:37;-0.30;99.90
60027;DHT22;45891;53.006;6.512;2022-12-18T14:16:05;-0.30;99.90
60027;DHT22;45891;53.006;6.512;2022-12-18T14:20:59;-0.40;99.90
60027;DHT22;45891;53.006;6.512;2022-12-18T14:23:36;-0.40;99.90
60027;DHT22;45891;53.006;6.512;2022-12-18T14:26:03;-0.40;99.90
60027;DHT22;45891;53.006;6.512;2022-12-18T14:28:43;-0.40;99.90
60027;DHT22;45891;53.006;6.512;2022-12-18T14:31:16;-0.50;99.90
60027;DHT22;45891;53.006;6.512;2022-12-18T14:33:43;-0.50;99.90
60027;DHT22;45891;53.006;6.512;2022-12-18T14:36:13;-0.50;99.90
60027;DHT22;45891;53.006;6.512;2022-12-18T14:38:41;-0.50;99.90
60027;DHT22;45891;53.006;6.512;2022-12-18T14:41:10;-0.50;99.90
60027;DHT22;45891;53.006;6.512;2022-12-18T14:43:38;-0.50;99.90
60027;DHT22;45891;53.006;6.512;2022-12-18T14:46:05;-0.50;99.90
60027;DHT22;45891;53.006;6.512;2022-12-18T14:48:33;-0.60;99.90
60027;DHT22;45891;53.006;6.512;2022-12-18T14:51:01;-0.60;99.90
60027;DHT22;45891;53.006;6.512;2022-12-18T14:53:47;-0.60;99.90
60027;DHT22;45891;53.006;6.512;2022-12-18T14:56:18;-0.60;99.90
60027;DHT22;45891;53.006;6.512;2022-12-18T14:58:46;-0.70;99.90
60027;DHT22;45891;53.006;6.512;2022-12-18T15:01:17;-0.70;99.90
60027;DHT22;45891;53.006;6.512;2022-12-18T15:03:43;-0.70;99.90
60027;DHT22;45891;53.006;6.512;2022-12-18T15:06:24;-0.70;99.90
60027;DHT22;45891;53.006;6.512;2022-12-18T15:08:51;-0.70;99.90
60027;DHT22;45891;53.006;6.512;2022-12-18T15:13:52;-0.80;99.90
60027;DHT22;45891;53.006;6.512;2022-12-18T15:16:18;-0.80;99.90
60027;DHT22;45891;53.006;6.512;2022-12-18T15:18:44;-0.90;99.90
60027;DHT22;45891;53.006;6.512;2022-12-18T15:21:11;-0.90;99.90
60027;DHT22;45891;53.006;6.512;2022-12-18T15:26:14;-0.90;99.90
60027;DHT22;45891;53.006;6.512;2022-12-18T15:28:54;-0.90;99.90
60027;DHT22;45891;53.006;6.512;2022-12-18T15:31:31;-0.90;99.90
60027;DHT22;45891;53.006;6.512;2022-12-18T15:34:22;-0.90;99.90
60027;DHT22;45891;53.006;6.512;2022-12-18T15:36:46;-1.00;99.90
60027;DHT22;45891;53.006;6.512;2022-12-18T15:39:12;-1.00;99.90
60027;DHT22;45891;53.006;6.512;2022-12-18T15:41:38;-1.00;99.90
60027;DHT22;45891;53.006;6.512;2022-12-18T15:47:00;-1.00;99.90
60027;DHT22;45891;53.006;6.512;2022-12-18T15:49:26;-1.10;99.90
60027;DHT22;45891;53.006;6.512;2022-12-18T15:51:53;-1.00;99.90
60027;DHT22;45891;53.006;6.512;2022-12-18T15:54:19;-1.10;99.90
60027;DHT22;45891;53.006;6.512;2022-12-18T15:57:09;-1.10;99.90
60027;DHT22;45891;53.006;6.512;2022-12-18T15:59:51;-1.00;99.90
60027;DHT22;45891;53.006;6.512;2022-12-18T16:02:18;-1.10;99.90
60027;DHT22;45891;53.006;6.512;2022-12-18T16:04:45;-1.10;99.90
60027;DHT22;45891;53.006;6.512;2022-12-18T16:07:13;-1.10;99.90
60027;DHT22;45891;53.006;6.512;2022-12-18T16:09:40;-1.10;99.90
60027;DHT22;45891;53.006;6.512;2022-12-18T16:12:21;-1.10;99.90
60027;DHT22;45891;53.006;6.512;2022-12-18T16:14:48;-1.10;99.90
60027;DHT22;45891;53.006;6.512;2022-12-18T16:17:14;-1.10;99.90
60027;DHT22;45891;53.006;6.512;2022-12-18T16:19:42;-1.10;99.90
60027;DHT22;45891;53.006;6.512;2022-12-18T16:22:15;-1.10;99.90
60027;DHT22;45891;53.006;6.512;2022-12-18T16:24:43;-1.10;99.90
60027;DHT22;45891;53.006;6.512;2022-12-18T16:27:09;-1.10;99.90
60027;DHT22;45891;53.006;6.512;2022-12-18T16:29:35;-1.10;99.90
60027;DHT22;45891;53.006;6.512;2022-12-18T16:32:01;-1.10;99.90
60027;DHT22;45891;53.006;6.512;2022-12-18T16:34:31;-1.10;99.90
60027;DHT22;45891;53.006;6.512;2022-12-18T16:37:03;-1.10;99.90
60027;DHT22;45891;53.006;6.512;2022-12-18T16:39:29;-1.10;99.90
60027;DHT22;45891;53.006;6.512;2022-12-18T16:42:00;-1.00;99.90
60027;DHT22;45891;53.006;6.512;2022-12-18T16:44:26;-1.10;99.90
60027;DHT22;45891;53.006;6.512;2022-12-18T16:46:52;-1.10;99.90
60027;DHT22;45891;53.006;6.512;2022-12-18T16:49:18;-1.00;99.90
60027;DHT22;45891;53.006;6.512;2022-12-18T16:51:47;-1.00;99.90
60027;DHT22;45891;53.006;6.512;2022-12-18T16:54:13;-1.00;99.90
60027;DHT22;45891;53.006;6.512;2022-12-18T16:56:39;-1.00;99.90
60027;DHT22;45891;53.006;6.512;2022-12-18T16:59:05;-1.00;99.90
60027;DHT22;45891;53.006;6.512;2022-12-18T17:01:31;-0.90;99.90
60027;DHT22;45891;53.006;6.512;2022-12-18T17:03:58;-0.90;99.90
60027;DHT22;45891;53.006;6.512;2022-12-18T17:06:25;-0.90;99.90